Time;durP1;ratioP1;P1;durP2;ratioP2;P2;SDS_P1;SDS_P2;PMS_P1;PMS_P2;Temp;Humidity;BMP_temperature;BMP_pressure;BME280_temperature;BME280_humidity;BME280_pressure;Samples;Min_cycle;Max_cycle;Signal;HPM_P1;HPM_P2
2022/09/18 00:00:28;;;;;;;6.53;1.42;;;;;;;12.54;100.00;101576.38;5286750;28;20047;-69
2022/09/18 00:02:59;;;;;;;4.40;1.52;;;;;;;12.51;100.00;101563.53;5288779;28;20116;-69
2022/09/18 00:05:31;;;;;;;6.93;1.80;;;;;;;12.47;100.00;101564.75;5288696;28;20047;-69
2022/09/18 00:08:02;;;;;;;6.43;1.83;;;;;;;12.48;100.00;101566.41;5287293;28;20381;-69
2022/09/18 00:10:45;;;;;;;6.03;1.70;;;;;;;12.62;100.00;101572.19;5287315;28;20027;-69
2022/09/18 00:13:16;;;;;;;5.80;1.90;;;;;;;12.47;100.00;101567.38;5280380;28;20035;-69
2022/09/18 00:15:55;;;;;;;7.13;2.00;;;;;;;12.55;100.00;101568.41;5283251;28;20021;-69
2022/09/18 00:18:26;;;;;;;5.55;2.10;;;;;;;12.46;100.00;101569.13;5286111;28;20075;-69
2022/09/18 00:21:04;;;;;;;5.53;1.85;;;;;;;12.59;100.00;101566.34;5284749;28;20048;-69
2022/09/18 00:23:36;;;;;;;6.43;2.13;;;;;;;12.48;100.00;101567.22;5282898;28;20040;-69
2022/09/18 00:26:10;;;;;;;7.97;2.00;;;;;;;12.54;100.00;101561.47;5284883;28;20110;-69
2022/09/18 00:28:41;;;;;;;7.32;2.25;;;;;;;12.49;100.00;101554.91;5278458;28;20031;-69
2022/09/18 00:31:16;;;;;;;5.70;1.80;;;;;;;12.53;100.00;101558.97;5282215;28;20460;-69
2022/09/18 00:33:47;;;;;;;5.38;1.88;;;;;;;12.49;100.00;101560.16;5283360;28;20065;-69
2022/09/18 00:36:19;;;;;;;4.75;1.90;;;;;;;12.49;100.00;101560.16;5288777;28;20420;-69
2022/09/18 00:38:51;;;;;;;4.97;1.80;;;;;;;12.49;100.00;101555.75;5287454;28;20761;-69
2022/09/18 00:41:34;;;;;;;5.10;2.00;;;;;;;12.54;100.00;101552.72;5283736;28;20846;-69
2022/09/18 00:44:27;;;;;;;9.45;1.98;;;;;;;12.77;100.00;101567.47;5284253;28;20040;-69
2022/09/18 00:47:10;;;;;;;4.75;1.70;;;;;;;12.72;100.00;101569.63;5285492;28;20016;-69
2022/09/18 00:49:48;;;;;;;5.85;1.90;;;;;;;12.58;100.00;101564.69;5302202;28;20063;-69
2022/09/18 00:52:22;;;;;;;6.40;2.33;;;;;;;12.52;100.00;101566.00;5294167;28;20027;-69
2022/09/18 00:55:15;;;;;;;6.65;2.08;;;;;;;12.76;100.00;101557.91;5283928;28;20085;-69
2022/09/18 00:57:50;;;;;;;5.03;1.70;;;;;;;12.57;100.00;101555.13;5283260;28;20032;-69
2022/09/18 01:00:22;;;;;;;5.82;1.83;;;;;;;12.49;100.00;101560.16;5284925;28;20526;-69
2022/09/18 01:02:54;;;;;;;6.45;1.98;;;;;;;12.46;100.00;101563.03;5278723;28;20035;-69
2022/09/18 01:05:35;;;;;;;6.00;1.85;;;;;;;12.55;100.00;101560.50;5292465;28;20401;-69
2022/09/18 01:08:17;;;;;;;5.75;1.92;;;;;;;12.58;100.00;101565.53;5287128;28;20039;-70
2022/09/18 01:11:26;;;;;;;5.57;1.92;;;;;;;12.66;100.00;101559.63;5282607;28;20031;-69
2022/09/18 01:14:17;;;;;;;4.68;1.90;;;;;;;12.62;100.00;101558.22;5286385;28;20028;-69
2022/09/18 01:17:00;;;;;;;5.63;2.05;;;;;;;12.55;100.00;101567.56;5290597;28;20437;-69
2022/09/18 01:19:58;;;;;;;5.13;1.95;;;;;;;12.65;100.00;101573.72;5284084;28;20467;-69
2022/09/18 01:22:36;;;;;;;3.85;1.98;;;;;;;12.59;100.00;101563.72;5290107;28;20139;-69
2022/09/18 01:25:34;;;;;;;4.93;2.13;;;;;;;12.78;100.00;101563.88;5287312;28;20063;-69
2022/09/18 01:28:15;;;;;;;5.65;2.00;;;;;;;12.66;100.00;101563.09;5289042;28;20452;-69
2022/09/18 01:30:49;;;;;;;3.58;1.60;;;;;;;12.55;100.00;101562.31;5286562;28;20040;-69
2022/09/18 01:33:33;;;;;;;5.32;1.98;;;;;;;12.69;100.00;101566.41;5286547;28;20063;-69
2022/09/18 01:36:10;;;;;;;4.68;1.80;;;;;;;12.60;100.00;101557.50;5289141;28;20098;-69
2022/09/18 01:38:49;;;;;;;8.85;2.45;;;;;;;12.61;100.00;101564.41;5280368;28;20059;-69
2022/09/18 01:41:26;;;;;;;4.82;1.65;;;;;;;12.62;100.00;101558.22;5287029;28;20036;-69
2022/09/18 01:44:11;;;;;;;7.60;2.17;;;;;;;12.62;100.00;101550.34;5285878;28;20039;-69
2022/09/18 01:46:44;;;;;;;5.70;2.10;;;;;;;12.50;100.00;101553.94;5290926;28;20515;-69
2022/09/18 01:49:21;;;;;;;4.88;1.90;;;;;;;12.55;100.00;101555.25;5288705;28;20110;-69
2022/09/18 01:51:59;;;;;;;6.15;2.25;;;;;;;12.54;100.00;101550.97;5283236;28;20032;-69
2022/09/18 01:54:36;;;;;;;7.68;2.20;;;;;;;12.48;100.00;101551.47;5287706;28;20653;-69
2022/09/18 01:57:38;;;;;;;8.45;2.28;;;;;;;12.69;100.00;101548.88;5286619;28;20451;-69
2022/09/18 02:00:11;;;;;;;7.40;2.25;;;;;;;12.44;100.00;101544.78;5280748;28;20454;-69
2022/09/18 02:03:12;;;;;;;;;;;;;;;13.00;100.00;101535.81;5288054;28;20059;-69
2022/09/18 02:05:51;;;;;;;4.07;1.67;;;;;;;12.51;100.00;101537.25;5231936;28;20265;-69
2022/09/18 02:08:32;;;;;;;5.53;2.25;;;;;;;12.50;100.00;101532.91;5288191;28;20195;-69
2022/09/18 02:11:12;;;;;;;6.70;2.15;;;;;;;12.52;100.00;101529.22;5296940;28;20518;-69
2022/09/18 02:13:52;;;;;;;6.60;2.35;;;;;;;12.54;100.00;101539.59;5306517;28;20114;-69
2022/09/18 02:16:31;;;;;;;5.97;2.40;;;;;;;12.49;100.00;101531.25;5289379;28;20047;-69
2022/09/18 02:19:09;;;;;;;5.65;2.22;;;;;;;12.49;100.00;101542.59;5310845;22;20583;-70
2022/09/18 02:21:42;;;;;;;6.45;2.50;;;;;;;12.44;100.00;101531.66;5286720;28;20606;-70
2022/09/18 02:24:17;;;;;;;6.93;2.38;;;;;;;12.48;100.00;101526.97;5289307;28;20120;-71
2022/09/18 02:26:52;;;;;;;6.25;1.80;;;;;;;12.43;100.00;101532.63;5292986;28;20107;-70
2022/09/18 02:29:24;;;;;;;7.32;2.17;;;;;;;12.43;100.00;101527.34;5286951;28;20393;-70
2022/09/18 02:31:58;;;;;;;5.63;2.10;;;;;;;12.50;100.00;101527.66;5288363;28;20048;-70
2022/09/18 02:34:31;;;;;;;6.55;2.22;;;;;;;12.45;100.00;101521.97;5288452;28;20028;-70
2022/09/18 02:37:34;;;;;;;6.70;2.08;;;;;;;12.70;100.00;101518.16;5289644;28;20450;-70
2022/09/18 02:40:31;;;;;;;4.95;1.63;;;;;;;12.62;100.00;101510.91;5289844;28;20020;-70
2022/09/18 02:43:41;;;;;;;6.93;2.22;;;;;;;12.77;100.00;101514.88;5284256;28;20390;-70
2022/09/18 02:46:37;;;;;;;5.93;1.73;;;;;;;12.71;100.00;101515.38;5285421;28;20471;-70
2022/09/18 02:49:32;;;;;;;4.63;1.52;;;;;;;12.67;100.00;101524.50;5285977;28;20032;-70
2022/09/18 02:52:13;;;;;;;7.40;1.77;;;;;;;12.57;100.00;101524.41;5285242;28;20026;-70
2022/09/18 02:54:50;;;;;;;5.82;1.90;;;;;;;12.55;100.00;101520.25;5290458;28;20031;-70
2022/09/18 02:57:57;;;;;;;6.13;1.88;;;;;;;12.62;100.00;101511.75;5287317;28;20134;-70
2022/09/18 03:00:30;;;;;;;9.05;2.15;;;;;;;12.60;100.00;101513.66;5269380;28;20036;-70
2022/09/18 03:03:02;;;;;;;5.53;1.90;;;;;;;12.57;100.00;101508.63;5288530;28;20026;-70
2022/09/18 03:05:33;;;;;;;7.80;1.65;;;;;;;12.59;100.00;101517.25;5287094;28;20028;-70
2022/09/18 03:08:04;;;;;;;8.93;2.00;;;;;;;12.59;100.00;101519.03;5285538;28;20546;-70
2022/09/18 03:10:36;;;;;;;5.35;1.65;;;;;;;12.60;100.00;101511.00;5287361;28;20016;-71
2022/09/18 03:13:07;;;;;;;8.40;1.80;;;;;;;12.61;100.00;101499.56;5287100;28;20073;-70
2022/09/18 03:15:38;;;;;;;7.60;1.60;;;;;;;12.60;100.00;101504.94;5287808;28;20032;-70
2022/09/18 03:18:09;;;;;;;8.70;2.00;;;;;;;12.59;100.00;101506.72;5287158;28;20032;-70
2022/09/18 03:20:42;;;;;;;8.07;1.58;;;;;;;12.59;100.00;101501.47;5290174;28;20052;-70
2022/09/18 03:23:14;;;;;;;7.15;1.58;;;;;;;12.66;100.00;101499.19;5291410;28;20028;-70
2022/09/18 03:25:50;;;;;;;8.45;1.70;;;;;;;12.69;100.00;101505.94;5293766;28;20028;-70
2022/09/18 03:28:21;;;;;;;5.57;1.50;;;;;;;12.60;100.00;101505.75;5295765;28;20446;-70
2022/09/18 03:30:52;;;;;;;9.52;1.58;;;;;;;12.62;100.00;101510.91;5290858;28;20016;-70
2022/09/18 03:33:23;;;;;;;9.95;1.40;;;;;;;12.61;100.00;101503.97;5292290;28;20055;-70
2022/09/18 03:35:55;;;;;;;7.20;1.88;;;;;;;12.61;100.00;101501.34;5292244;28;20012;-70
2022/09/18 03:38:26;;;;;;;8.73;1.58;;;;;;;12.60;100.00;101490.00;5294494;28;20183;-71
2022/09/18 03:40:58;;;;;;;8.00;1.40;;;;;;;12.59;100.00;101498.84;5291264;28;20028;-70
2022/09/18 03:43:29;;;;;;;7.13;2.03;;;;;;;12.55;100.00;101501.84;5293096;28;20042;-70
2022/09/18 03:46:01;;;;;;;7.47;1.60;;;;;;;12.57;100.00;101498.13;5290672;28;20031;-70
2022/09/18 03:48:32;;;;;;;6.22;1.48;;;;;;;12.54;100.00;101494.91;5291628;28;20103;-70
2022/09/18 03:51:03;;;;;;;5.35;1.42;;;;;;;12.58;100.00;101491.09;5292918;28;20028;-70
2022/09/18 03:53:35;;;;;;;5.63;1.52;;;;;;;12.54;100.00;101481.78;5294162;28;20032;-70
2022/09/18 03:56:06;;;;;;;5.78;1.00;;;;;;;12.57;100.00;101476.25;5292056;28;20118;-70
2022/09/18 03:58:38;;;;;;;6.38;1.02;;;;;;;12.52;100.00;101484.53;5290654;28;20036;-70
2022/09/18 04:01:09;;;;;;;5.32;1.27;;;;;;;12.49;100.00;101471.66;5290836;28;20500;-70
2022/09/18 04:03:41;;;;;;;4.30;1.20;;;;;;;12.47;100.00;101472.75;5294317;28;20020;-70
2022/09/18 04:06:12;;;;;;;5.05;0.88;;;;;;;12.49;100.00;101476.91;5289138;28;20020;-70
2022/09/18 04:08:43;;;;;;;5.70;1.42;;;;;;;12.46;100.00;101471.91;5293722;28;20024;-71
2022/09/18 04:11:14;;;;;;;8.02;1.30;;;;;;;12.45;100.00;101467.59;5293984;28;20391;-70
2022/09/18 04:13:46;;;;;;;3.90;0.93;;;;;;;12.45;100.00;101472.03;5289795;28;20391;-70
2022/09/18 04:16:17;;;;;;;5.75;1.23;;;;;;;12.45;100.00;101472.03;5292228;28;20031;-71
2022/09/18 04:18:49;;;;;;;4.75;0.98;;;;;;;12.43;100.00;101479.22;5287718;28;20113;-70
2022/09/18 04:21:20;;;;;;;8.90;1.30;;;;;;;12.43;100.00;101479.22;5284605;28;20033;-70
2022/09/18 04:23:51;;;;;;;5.07;0.90;;;;;;;12.39;100.00;101474.22;5285048;28;20032;-70
2022/09/18 04:26:25;;;;;;;5.40;1.67;;;;;;;12.40;100.00;101481.13;5284863;28;20020;-70
2022/09/18 04:28:56;;;;;;;6.10;1.17;;;;;;;12.38;100.00;101475.16;5285316;28;20032;-70
2022/09/18 04:31:27;;;;;;;3.78;1.00;;;;;;;12.38;100.00;101475.16;5281321;28;20073;-70
2022/09/18 04:33:59;;;;;;;4.75;0.98;;;;;;;12.35;100.00;101475.44;5286642;28;20546;-70
2022/09/18 04:36:30;;;;;;;5.03;0.70;;;;;;;12.32;100.00;101473.06;5284213;28;20392;-70
2022/09/18 04:39:02;;;;;;;5.60;1.20;;;;;;;12.33;100.00;101484.38;5286456;28;20020;-70
2022/09/18 04:41:33;;;;;;;4.70;1.10;;;;;;;12.31;100.00;101489.78;5284248;28;20035;-70
2022/09/18 04:44:05;;;;;;;4.88;0.85;;;;;;;12.32;100.00;101487.97;5284520;28;20276;-70
2022/09/18 04:46:36;;;;;;;8.48;1.63;;;;;;;12.25;100.00;101479.75;5283102;28;20516;-70
2022/09/18 04:49:08;;;;;;;4.93;1.00;;;;;;;12.30;100.00;101476.75;5285122;28;20449;-70
2022/09/18 04:51:39;;;;;;;5.25;1.10;;;;;;;12.30;100.00;101485.47;5285284;28;20119;-71
2022/09/18 04:54:11;;;;;;;3.78;1.10;;;;;;;12.27;100.00;101496.22;5284877;28;20031;-70
2022/09/18 04:56:42;;;;;;;4.78;1.20;;;;;;;12.27;100.00;101496.22;5284417;28;20036;-70
2022/09/18 04:59:13;;;;;;;6.82;1.00;;;;;;;12.30;100.00;101489.88;5281869;28;20032;-71
2022/09/18 05:01:45;;;;;;;6.10;1.10;;;;;;;12.28;100.00;101486.56;5286876;28;20025;-70
2022/09/18 05:04:16;;;;;;;4.15;1.10;;;;;;;12.26;100.00;101481.41;5285942;28;20024;-70
2022/09/18 05:06:47;;;;;;;4.75;1.10;;;;;;;12.29;100.00;101481.19;5284794;28;20036;-71
2022/09/18 05:09:18;;;;;;;5.28;1.50;;;;;;;12.28;100.00;101473.44;5284478;28;20051;-70
2022/09/18 05:11:50;;;;;;;6.97;1.63;;;;;;;12.26;100.00;101460.41;5284567;28;20070;-71
2022/09/18 05:14:21;;;;;;;3.88;1.10;;;;;;;12.28;100.00;101455.03;5283091;28;20520;-70
2022/09/18 05:16:52;;;;;;;3.17;0.63;;;;;;;12.30;100.00;101468.88;5285612;28;20024;-71
2022/09/18 05:19:24;;;;;;;8.05;1.45;;;;;;;12.31;100.00;101474.03;5285339;28;20480;-70
2022/09/18 05:21:55;;;;;;;7.53;1.38;;;;;;;12.31;100.00;101483.66;5284894;28;20029;-70
2022/09/18 05:24:26;;;;;;;3.88;1.20;;;;;;;12.32;100.00;101493.25;5286749;28;20093;-70
2022/09/18 05:26:57;;;;;;;4.90;1.35;;;;;;;12.32;100.00;101475.69;5283102;28;20028;-70
2022/09/18 05:29:29;;;;;;;6.18;1.10;;;;;;;12.35;100.00;101478.06;5283311;28;20724;-70
2022/09/18 05:32:00;;;;;;;6.93;1.42;;;;;;;12.31;100.00;101484.53;5270492;28;20031;-70
2022/09/18 05:34:32;;;;;;;5.85;1.05;;;;;;;12.29;100.00;101493.47;5286761;28;20039;-70
2022/09/18 05:37:03;;;;;;;5.63;0.80;;;;;;;12.29;100.00;101506.63;5287841;28;20040;-70
2022/09/18 05:39:35;;;;;;;5.65;1.30;;;;;;;12.28;100.00;101503.16;5289027;28;20023;-70
2022/09/18 05:42:06;;;;;;;6.65;1.65;;;;;;;12.31;100.00;101507.31;5291757;28;20039;-70
2022/09/18 05:44:37;;;;;;;8.68;1.73;;;;;;;12.38;100.00;101487.47;5286917;28;20020;-70
2022/09/18 05:47:08;;;;;;;4.03;1.05;;;;;;;12.37;100.00;101485.81;5291148;28;20032;-70
2022/09/18 05:49:40;;;;;;;6.35;1.33;;;;;;;12.37;100.00;101480.56;5289324;28;20027;-70
2022/09/18 05:52:11;;;;;;;6.55;1.88;;;;;;;12.38;100.00;101483.03;5289137;28;20326;-70
2022/09/18 05:54:42;;;;;;;7.47;1.60;;;;;;;12.39;100.00;101489.97;5288849;28;20042;-70
2022/09/18 05:57:14;;;;;;;7.28;1.52;;;;;;;12.41;100.00;101493.31;5285883;28;20447;-70
2022/09/18 05:59:45;;;;;;;5.30;1.38;;;;;;;12.43;100.00;101490.56;5284605;28;20542;-70
2022/09/18 06:02:16;;;;;;;4.82;1.58;;;;;;;12.44;100.00;101484.34;5288771;28;20063;-70
2022/09/18 06:04:48;;;;;;;8.68;1.85;;;;;;;12.48;100.00;101477.03;5285259;28;20089;-70
2022/09/18 06:07:19;;;;;;;5.90;1.50;;;;;;;12.53;100.00;101486.19;5284648;28;20074;-70
2022/09/18 06:09:50;;;;;;;7.35;2.17;;;;;;;12.53;100.00;101480.09;5286587;28;20020;-71
2022/09/18 06:12:21;;;;;;;13.02;2.78;;;;;;;12.57;100.00;101479.72;5283366;28;20032;-70
2022/09/18 06:14:53;;;;;;;4.47;1.40;;;;;;;12.61;100.00;101468.03;5286472;28;20116;-70
2022/09/18 06:17:24;;;;;;;7.53;1.60;;;;;;;12.58;100.00;101472.69;5284415;28;20048;-70
2022/09/18 06:19:55;;;;;;;5.68;1.60;;;;;;;12.61;100.00;101467.16;5284409;28;20043;-71
2022/09/18 06:22:26;;;;;;;5.57;1.35;;;;;;;12.66;100.00;101476.34;5285428;28;20093;-70
2022/09/18 06:24:58;;;;;;;7.35;1.80;;;;;;;12.71;100.00;101470.69;5290151;28;20567;-70
2022/09/18 06:27:29;;;;;;;5.40;1.38;;;;;;;12.76;100.00;101478.19;5286454;28;20059;-70
2022/09/18 06:30:02;;;;;;;3.45;1.30;;;;;;;12.80;100.00;101474.34;5288560;28;20024;-70
2022/09/18 06:32:33;;;;;;;6.45;1.48;;;;;;;12.83;100.00;101467.03;5287274;28;20028;-71
2022/09/18 06:35:05;;;;;;;10.10;2.50;;;;;;;12.88;100.00;101466.66;5287378;28;20043;-71
2022/09/18 06:37:36;;;;;;;8.98;1.98;;;;;;;12.91;100.00;101469.84;5290650;28;20089;-70
2022/09/18 06:40:08;;;;;;;7.88;1.58;;;;;;;12.96;100.00;101464.22;5288072;28;20527;-71
2022/09/18 06:42:39;;;;;;;10.88;2.17;;;;;;;12.99;100.00;101456.03;5283336;28;20064;-71
2022/09/18 06:45:10;;;;;;;6.80;1.48;;;;;;;13.03;100.00;101461.88;5280671;28;20532;-71
2022/09/18 06:47:41;;;;;;;10.15;1.38;;;;;;;13.05;100.00;101468.69;5274495;28;20032;-70
2022/09/18 06:50:13;;;;;;;6.07;1.85;;;;;;;13.05;100.00;101468.69;5286496;28;20024;-71
2022/09/18 06:52:44;;;;;;;5.13;1.40;;;;;;;13.06;100.00;101469.50;5283812;28;20081;-71
2022/09/18 06:55:17;;;;;;;7.07;1.20;;;;;;;13.10;100.00;101466.47;5287177;28;20032;-71
2022/09/18 06:57:53;;;;;;;6.03;1.75;;;;;;;13.20;100.00;101460.44;5285470;28;20031;-71
2022/09/18 07:00:26;;;;;;;8.40;1.92;;;;;;;13.18;100.00;101471.09;5286869;28;20535;-71
2022/09/18 07:02:59;;;;;;;7.68;1.77;;;;;;;13.20;100.00;101465.69;5289464;28;20085;-71
2022/09/18 07:05:31;;;;;;;7.72;1.77;;;;;;;13.22;100.00;101459.34;5282810;28;20330;-72
2022/09/18 07:08:02;;;;;;;4.70;1.50;;;;;;;13.23;100.00;101475.97;5289094;28;20057;-71
2022/09/18 07:10:34;;;;;;;10.25;1.90;;;;;;;13.29;100.00;101468.38;5287271;28;20025;-71
2022/09/18 07:13:05;;;;;;;8.25;1.50;;;;;;;13.31;100.00;101465.66;5288349;28;20027;-71
2022/09/18 07:15:36;;;;;;;5.70;1.52;;;;;;;13.33;100.00;101461.94;5286992;28;20407;-71
2022/09/18 07:18:08;;;;;;;6.95;1.30;;;;;;;13.35;100.00;101462.59;5283596;28;20033;-71
2022/09/18 07:20:39;;;;;;;7.75;1.73;;;;;;;13.42;100.00;101467.34;5286457;28;20052;-71
2022/09/18 07:23:11;;;;;;;4.63;1.50;;;;;;;13.42;100.00;101454.19;5284511;28;20039;-71
2022/09/18 07:25:42;;;;;;;8.40;1.50;;;;;;;13.52;100.00;101455.03;5285213;28;20040;-72
2022/09/18 07:28:13;;;;;;;6.93;1.35;;;;;;;13.53;100.00;101456.72;5286158;28;20065;-71
2022/09/18 07:30:45;;;;;;;8.90;1.98;;;;;;;13.53;100.00;101448.81;5285089;28;20039;-72
2022/09/18 07:33:16;;;;;;;4.43;1.52;;;;;;;13.56;100.00;101444.13;5283068;28;20025;-72
2022/09/18 07:35:48;;;;;;;5.22;1.38;;;;;;;13.54;100.00;101435.50;5287023;28;20119;-71
2022/09/18 07:38:19;;;;;;;5.15;1.33;;;;;;;13.60;100.00;101439.44;5285530;28;20257;-71
2022/09/18 07:40:50;;;;;;;3.65;1.40;;;;;;;13.67;100.00;101437.88;5289703;28;20028;-71
2022/09/18 07:43:22;;;;;;;9.05;1.40;;;;;;;13.63;100.00;101432.06;5289539;28;20028;-71
2022/09/18 07:45:53;;;;;;;7.18;1.48;;;;;;;13.66;100.00;101449.41;5279209;28;20029;-71
2022/09/18 07:48:24;;;;;;;8.65;1.48;;;;;;;13.77;100.00;101456.34;5281887;28;20073;-71
2022/09/18 07:50:57;;;;;;;8.10;1.92;;;;;;;13.74;100.00;101449.53;5286065;28;20100;-71
2022/09/18 07:53:28;;;;;;;5.73;1.40;;;;;;;13.82;100.00;101444.44;5284909;28;20799;-71
2022/09/18 07:56:00;;;;;;;7.10;1.70;;;;;;;13.97;100.00;101444.84;5286249;28;20285;-71
2022/09/18 07:58:31;;;;;;;6.53;1.50;;;;;;;13.99;100.00;101445.56;5287074;28;20036;-72
2022/09/18 08:01:04;;;;;;;4.30;1.30;;;;;;;14.13;100.00;101444.34;5288036;28;20026;-71
2022/09/18 08:03:36;;;;;;;11.32;1.60;;;;;;;14.17;100.00;101435.19;5284809;28;20519;-71
2022/09/18 08:06:07;;;;;;;5.15;1.58;;;;;;;14.28;100.00;101440.31;5281803;28;20020;-71
2022/09/18 08:08:38;;;;;;;3.75;1.25;;;;;;;14.34;100.00;101433.63;5285508;28;20069;-71
2022/09/18 08:11:10;;;;;;;4.65;1.27;;;;;;;14.38;100.00;101439.47;5282128;28;20016;-71
2022/09/18 08:13:41;;;;;;;5.35;1.27;;;;;;;14.47;100.00;101433.34;5286599;28;20474;-71
2022/09/18 08:16:12;;;;;;;5.65;1.33;;;;;;;14.48;100.00;101430.56;5288399;28;20114;-71
2022/09/18 08:18:43;;;;;;;8.05;1.48;;;;;;;14.50;100.00;101438.34;5286232;28;20044;-73
2022/09/18 08:21:15;;;;;;;4.65;1.65;;;;;;;14.42;100.00;101446.94;5284410;28;20476;-72
2022/09/18 08:23:46;;;;;;;7.30;1.60;;;;;;;14.39;100.00;101444.59;5280803;28;20444;-72
2022/09/18 08:26:17;;;;;;;3.45;1.40;;;;;;;14.34;100.00;101449.44;5280670;28;20032;-72
2022/09/18 08:28:49;;;;;;;6.97;1.33;;;;;;;14.34;100.00;101452.09;5286760;28;20473;-72
2022/09/18 08:31:20;;;;;;;7.35;1.30;;;;;;;14.27;100.00;101458.88;5282219;28;20028;-72
2022/09/18 08:33:51;;;;;;;6.60;1.35;;;;;;;14.16;100.00;101451.94;5284693;28;20036;-72
2022/09/18 08:36:23;;;;;;;4.95;1.20;;;;;;;14.17;100.00;101452.78;5288557;28;20066;-72
2022/09/18 08:38:54;;;;;;;5.30;1.23;;;;;;;14.18;100.00;101460.56;5285667;28;20094;-72
2022/09/18 08:41:32;;;;;;;4.25;1.25;;;;;;;14.26;100.00;101467.78;5286939;28;20028;-72
2022/09/18 08:44:09;;;;;;;3.20;1.02;;;;;;;14.23;100.00;101463.59;5286175;28;20119;-72
2022/09/18 08:47:02;;;;;;;5.25;1.02;;;;;;;14.43;100.00;101459.16;5286230;28;20042;-72
2022/09/18 08:49:40;;;;;;;4.80;1.35;;;;;;;14.32;100.00;101454.03;5287465;28;20095;-72
2022/09/18 08:52:21;;;;;;;5.32;1.02;;;;;;;14.39;100.00;101449.03;5285237;28;20067;-72
2022/09/18 08:55:13;;;;;;;5.15;1.00;;;;;;;14.43;100.00;101456.50;5280844;28;20035;-72
2022/09/18 08:57:47;;;;;;;3.10;1.10;;;;;;;14.35;100.00;101459.84;5284420;28;20552;-72
2022/09/18 09:00:25;;;;;;;5.60;2.05;;;;;;;14.30;100.00;101453.34;5285923;28;20036;-72
2022/09/18 09:03:13;;;;;;;6.03;1.23;;;;;;;14.35;100.00;101457.19;5287582;28;20092;-72
2022/09/18 09:05:52;;;;;;;3.88;1.13;;;;;;;14.40;100.00;101469.16;5283395;28;20032;-73
2022/09/18 09:09:02;;;;;;;4.07;1.70;;;;;;;14.50;100.00;101455.00;5285484;28;20020;-73
2022/09/18 09:11:55;;;;;;;3.35;1.10;;;;;;;14.51;100.00;101466.41;5258192;28;20110;-72
2022/09/18 09:14:58;;;;;;;4.13;1.20;;;;;;;14.50;100.00;101464.72;5287806;28;20036;-72
2022/09/18 09:17:39;;;;;;;4.35;1.38;;;;;;;14.45;100.00;101464.28;5286620;28;20116;-72
2022/09/18 09:20:32;;;;;;;7.43;1.27;;;;;;;14.57;100.00;101456.13;5291933;28;20075;-73
2022/09/18 09:23:14;;;;;;;4.70;1.10;;;;;;;14.38;100.00;101444.72;5289659;28;20107;-72
2022/09/18 09:26:04;;;;;;;5.95;1.80;;;;;;;14.59;100.00;101464.72;5284330;28;20516;-73
2022/09/18 09:28:47;;;;;;;5.82;1.70;;;;;;;14.52;100.00;101468.06;5289043;28;20039;-73
2022/09/18 09:31:23;;;;;;;5.05;1.52;;;;;;;14.46;100.00;101465.94;5289019;28;20024;-73
2022/09/18 09:34:01;;;;;;;4.30;1.60;;;;;;;14.44;100.00;101467.91;5291318;28;20501;-73
2022/09/18 09:36:35;;;;;;;3.70;1.52;;;;;;;14.34;100.00;101465.25;5285196;28;20070;-73
2022/09/18 09:39:40;;;;;;;4.43;1.63;;;;;;;14.54;100.00;101466.09;5284952;28;20329;-73
2022/09/18 09:42:27;;;;;;;4.85;1.48;;;;;;;14.56;100.00;101462.38;5290389;28;20036;-73
2022/09/18 09:45:12;;;;;;;3.78;1.80;;;;;;;14.39;100.00;101470.94;5288282;28;20032;-73
2022/09/18 09:47:59;;;;;;;7.22;2.15;;;;;;;14.57;100.00;101469.28;5287403;28;20361;-73
2022/09/18 09:50:45;;;;;;;8.40;1.80;;;;;;;14.67;100.00;101473.75;5288900;28;20025;-73
2022/09/18 09:53:18;;;;;;;7.93;1.63;;;;;;;14.60;100.00;101465.56;5289157;28;20024;-73
2022/09/18 09:56:01;;;;;;;8.10;2.30;;;;;;;14.75;100.00;101458.03;5291755;28;20020;-73
2022/09/18 09:58:40;;;;;;;;;;;;;;;15.26;100.00;101456.75;5284797;28;20039;-73
2022/09/18 10:01:26;;;;;;;4.03;1.30;;;;;;;14.96;100.00;101442.00;5287484;28;20060;-73
2022/09/18 10:04:17;;;;;;;4.30;2.22;;;;;;;14.97;100.00;101431.31;5289984;28;20418;-73
2022/09/18 10:07:17;;;;;;;5.45;1.80;;;;;;;15.11;100.00;101430.00;5287252;28;20043;-73
2022/09/18 10:10:13;;;;;;;3.47;1.50;;;;;;;15.21;100.00;101428.16;5287613;28;20029;-73
2022/09/18 10:12:52;;;;;;;4.72;1.33;;;;;;;15.16;100.00;101421.66;5287725;28;20033;-73
2022/09/18 10:15:38;;;;;;;6.95;1.30;;;;;;;15.21;100.00;101420.22;5286121;28;20028;-73
2022/09/18 10:18:16;;;;;;;3.22;1.17;;;;;;;15.17;100.00;101424.16;5286368;28;20073;-73
2022/09/18 10:20:52;;;;;;;2.80;1.40;;;;;;;15.21;100.00;101430.78;5296307;28;20435;-73
2022/09/18 10:23:37;;;;;;;5.18;1.60;;;;;;;15.37;100.00;101424.88;5297550;28;20073;-73
2022/09/18 10:26:15;;;;;;;4.85;1.38;;;;;;;15.33;100.00;101437.53;5296694;28;20024;-73
2022/09/18 10:28:46;;;;;;;5.22;1.85;;;;;;;15.36;100.00;101425.84;5295549;28;20078;-73
2022/09/18 10:31:18;;;;;;;4.78;1.42;;;;;;;15.43;100.00;101429.56;5298699;28;20020;-73
2022/09/18 10:33:52;;;;;;;6.10;1.40;;;;;;;15.49;100.00;101434.28;5295227;28;20031;-73
2022/09/18 10:36:36;;;;;;;5.45;1.40;;;;;;;15.61;100.00;101432.25;5289155;28;20046;-73
2022/09/18 10:39:30;;;;;;;3.15;1.15;;;;;;;15.65;100.00;101432.78;5296308;28;20065;-73
2022/09/18 10:42:04;;;;;;;2.72;0.90;;;;;;;15.43;100.00;101429.56;5292804;28;20021;-73
2022/09/18 10:44:39;;;;;;;2.85;1.10;;;;;;;15.45;100.00;101429.41;5297195;28;20396;-73
2022/09/18 10:47:17;;;;;;;3.95;0.98;;;;;;;15.64;100.00;101429.28;5297221;28;20032;-73
2022/09/18 10:50:06;;;;;;;4.63;0.90;;;;;;;15.73;100.00;101417.88;5296965;28;20027;-73
2022/09/18 10:52:46;;;;;;;4.07;0.90;;;;;;;15.54;100.00;101412.69;5294381;28;20491;-73
2022/09/18 10:55:19;;;;;;;3.35;0.73;;;;;;;15.66;100.00;101408.91;5297602;28;20500;-73
2022/09/18 10:57:56;;;;;;;2.58;0.90;;;;;;;15.73;100.00;101406.50;5297180;28;20032;-73
2022/09/18 11:00:29;;;;;;;3.78;1.13;;;;;;;15.70;100.00;101402.34;5296831;28;20110;-73
2022/09/18 11:03:21;;;;;;;3.50;1.27;;;;;;;15.94;100.00;101398.25;5290966;28;20106;-73
2022/09/18 11:05:57;;;;;;;3.97;1.50;;;;;;;15.73;100.00;101395.94;5295540;28;20028;-72
2022/09/18 11:08:33;;;;;;;4.25;1.27;;;;;;;15.57;100.00;101397.38;5294103;28;20058;-73
2022/09/18 11:11:08;;;;;;;3.42;1.35;;;;;;;15.47;100.00;101407.19;5292339;28;20488;-73
2022/09/18 11:13:47;;;;;;;5.18;1.42;;;;;;;15.38;100.00;101413.34;5291999;28;20028;-73
2022/09/18 11:16:31;;;;;;;6.13;1.10;;;;;;;15.26;100.00;101422.44;5294116;28;20122;-73
2022/09/18 11:22:35;;;;;;;4.72;1.63;;;;;;;15.14;100.00;101437.63;5285601;28;20037;-73
2022/09/18 11:25:21;;;;;;;5.90;2.08;;;;;;;15.09;100.00;101427.50;5290548;28;20111;-73
2022/09/18 11:27:55;;;;;;;6.20;1.90;;;;;;;14.94;100.00;101436.88;5285643;28;20484;-73
2022/09/18 11:30:28;;;;;;;6.07;1.60;;;;;;;14.76;100.00;101444.69;5279866;28;20047;-74
2022/09/18 11:33:19;;;;;;;4.95;1.40;;;;;;;14.89;100.00;101447.03;5279185;28;20032;-73
2022/09/18 11:35:58;;;;;;;5.82;1.08;;;;;;;14.70;100.00;101447.91;5279265;28;20430;-73
2022/09/18 11:38:31;;;;;;;5.97;0.80;;;;;;;14.36;100.00;101435.16;5279886;28;20028;-74
2022/09/18 11:41:03;;;;;;;2.42;0.80;;;;;;;14.36;100.00;101458.06;5276667;28;20020;-73
2022/09/18 11:43:36;;;;;;;5.90;0.60;;;;;;;14.25;100.00;101459.03;5281040;28;20032;-73
2022/09/18 11:46:37;;;;;;;3.15;0.70;;;;;;;14.34;100.00;101455.56;5277461;28;20055;-73
2022/09/18 11:49:14;;;;;;;4.22;0.90;;;;;;;14.12;100.00;101461.09;5282837;28;20052;-75
2022/09/18 11:51:56;;;;;;;2.78;0.63;;;;;;;14.20;100.00;101444.59;5285666;28;20028;-73
2022/09/18 11:54:37;;;;;;;4.70;1.25;;;;;;;14.33;100.00;101455.69;5283008;28;20489;-73
2022/09/18 11:57:37;;;;;;;3.20;1.17;;;;;;;14.54;100.00;101445.84;5284532;28;20023;-72
2022/09/18 12:00:17;;;;;;;4.45;1.13;;;;;;;14.44;100.00;101467.91;5280614;28;20046;-73
2022/09/18 12:02:56;;;;;;;4.80;0.90;;;;;;;14.36;100.00;101466.81;5281436;28;20051;-73